Time;durP1;ratioP1;P1;durP2;ratioP2;P2;SDS_P1;SDS_P2;PMS_P1;PMS_P2;Temp;Humidity;BMP_temperature;BMP_pressure;BME280_temperature;BME280_humidity;BME280_pressure;Samples;Min_cycle;Max_cycle;Signal;HPM_P1;HPM_P2
2021/09/10 00:02:07;;;;;;;10.48;8.32;;;19.50;99.90;;;21.25;100.00;100128.97;5075648;28;20029;-89
2021/09/10 00:04:34;;;;;;;11.45;8.07;;;19.60;99.90;;;21.21;100.00;100125.41;5082729;28;20058;-85
2021/09/10 00:07:00;;;;;;;11.95;8.35;;;19.60;99.90;;;21.20;100.00;100123.81;5094442;28;20025;-90
2021/09/10 00:09:26;;;;;;;10.93;8.38;;;19.50;99.90;;;21.15;100.00;100122.31;5091660;28;20491;-89
2021/09/10 00:11:52;;;;;;;10.30;7.85;;;19.50;99.90;;;21.17;100.00;100122.66;5092965;28;20040;-82
2021/09/10 00:14:18;;;;;;;15.73;9.23;;;19.40;99.90;;;21.13;100.00;100124.00;5092358;28;20035;-91
2021/09/10 00:16:44;;;;;;;11.68;8.07;;;19.50;99.90;;;21.09;100.00;100128.94;5083895;28;20096;-86
2021/09/10 00:19:10;;;;;;;11.77;8.27;;;19.40;99.90;;;21.00;100.00;100127.47;5078699;28;20052;-90
2021/09/10 00:21:36;;;;;;;11.05;8.23;;;19.40;99.90;;;21.03;100.00;100131.47;5077485;28;20116;-89
2021/09/10 00:24:02;;;;;;;12.88;8.80;;;19.40;99.90;;;20.97;100.00;100136.06;5076621;28;20048;-88
2021/09/10 00:26:27;;;;;;;10.68;7.70;;;19.40;99.90;;;20.92;100.00;100128.09;5077729;28;20090;-89
2021/09/10 00:28:53;;;;;;;10.90;8.25;;;19.50;99.90;;;20.98;100.00;100132.81;5076376;28;20427;-86
2021/09/10 00:31:19;;;;;;;13.05;9.25;;;19.50;99.90;;;20.98;100.00;100132.00;5077513;28;20044;-87
2021/09/10 00:33:45;;;;;;;10.48;7.72;;;19.40;99.90;;;20.99;100.00;100128.75;5076170;28;20029;-89
2021/09/10 00:36:12;;;;;;;15.05;8.13;;;19.50;99.90;;;21.02;100.00;100130.69;5076012;28;20028;-87
2021/09/10 00:38:38;;;;;;;11.48;8.27;;;19.40;99.90;;;20.93;100.00;100127.66;5076085;28;20032;-88
2021/09/10 00:41:04;;;;;;;10.60;8.40;;;19.40;99.90;;;20.93;100.00;100136.16;5075541;28;20036;-87
2021/09/10 00:43:29;;;;;;;13.48;9.32;;;19.40;99.90;;;20.96;100.00;100128.81;5106001;22;20575;-86
2021/09/10 00:45:58;;;;;;;10.57;9.02;;;19.40;99.90;;;20.92;100.00;100130.94;5039685;28;20029;-86
2021/09/10 00:48:27;;;;;;;13.52;8.57;;;19.30;99.90;;;20.85;100.00;100131.09;5038542;28;20048;-87
2021/09/10 00:50:54;;;;;;;13.68;8.25;;;19.30;99.90;;;20.82;100.00;100127.09;5038153;28;20040;-87
2021/09/10 00:53:21;;;;;;;12.23;8.30;;;19.30;99.90;;;20.81;100.00;100138.88;5055610;28;20383;-86
2021/09/10 00:55:47;;;;;;;13.88;8.85;;;19.20;99.90;;;20.76;100.00;100133.75;5037503;28;20039;-87
2021/09/10 00:58:14;;;;;;;11.35;8.75;;;19.20;99.90;;;20.74;100.00;100128.50;5056014;28;20029;-88
2021/09/10 01:00:41;;;;;;;11.90;8.80;;;19.20;99.90;;;20.76;100.00;100134.53;5054146;28;20465;-89
2021/09/10 01:03:12;;;;;;;12.27;8.68;;;19.20;99.90;;;20.79;100.00;100147.06;5039696;28;20120;-86
2021/09/10 01:05:43;;;;;;;13.52;8.55;;;19.10;99.90;;;20.73;100.00;100151.66;5040926;28;20411;-86
2021/09/10 01:08:12;;;;;;;9.95;8.60;;;19.10;99.90;;;20.65;100.00;100151.00;5041648;28;20039;-87
2021/09/10 01:10:42;;;;;;;14.25;9.00;;;19.10;99.90;;;20.66;100.00;100151.81;5042004;28;20029;-89
2021/09/10 01:13:10;;;;;;;16.27;8.77;;;19.00;99.90;;;20.66;100.00;100152.59;5059497;28;20548;-87
2021/09/10 01:15:36;;;;;;;12.13;9.18;;;19.10;99.90;;;20.67;100.00;100147.75;5059093;28;20048;-88
2021/09/10 01:18:02;;;;;;;12.15;8.63;;;19.10;99.90;;;20.63;100.00;100147.81;5059276;28;20373;-90
2021/09/10 01:20:29;;;;;;;12.27;8.32;;;19.10;99.90;;;20.71;100.00;100139.94;5058306;28;20090;-88
2021/09/10 01:22:54;;;;;;;13.32;9.65;;;19.10;99.90;;;20.63;100.00;100144.97;5059903;28;20037;-88
2021/09/10 01:25:21;;;;;;;12.70;9.07;;;19.10;99.90;;;20.68;100.00;100149.34;5040857;28;20295;-87
2021/09/10 01:27:55;;;;;;;12.35;8.98;;;19.10;99.90;;;20.66;100.00;100149.78;5041798;28;20025;-88
2021/09/10 01:30:29;;;;;;;14.82;9.68;;;19.10;99.90;;;20.65;100.00;100150.19;5041619;28;20131;-88
2021/09/10 01:32:56;;;;;;;14.00;9.32;;;19.10;99.90;;;20.73;100.00;100152.44;5058067;28;20029;-88
2021/09/10 01:35:22;;;;;;;11.10;9.05;;;19.10;99.90;;;20.73;100.00;100148.81;5041607;28;20438;-86
2021/09/10 01:37:48;;;;;;;10.82;9.10;;;19.10;99.90;;;20.74;100.00;100150.41;5042200;28;20035;-86
2021/09/10 01:40:15;;;;;;;12.10;9.02;;;19.10;99.90;;;20.76;100.00;100156.44;5060966;28;20029;-88
2021/09/10 01:42:42;;;;;;;15.55;8.95;;;19.10;99.90;;;20.75;100.00;100154.84;5061338;28;20025;-88
2021/09/10 01:45:12;;;;;;;14.48;9.80;;;19.10;99.90;;;20.71;100.00;100152.06;5049356;28;20040;-87
2021/09/10 01:47:39;;;;;;;10.75;9.00;;;19.10;99.90;;;20.66;100.00;100149.78;5060330;28;20021;-85
2021/09/10 01:50:14;;;;;;;18.70;9.65;;;19.10;99.90;;;20.65;100.00;100153.03;5061254;28;20036;-86
2021/09/10 01:52:40;;;;;;;12.65;8.65;;;19.10;99.90;;;20.66;100.00;100154.63;5042080;28;20017;-86
2021/09/10 01:55:11;;;;;;;13.27;9.73;;;19.10;99.90;;;20.62;100.00;100160.38;5040799;28;20107;-85
2021/09/10 01:57:44;;;;;;;13.40;9.82;;;19.00;99.90;;;20.64;100.00;100160.78;5057504;28;20228;-84
2021/09/10 02:00:11;;;;;;;15.60;8.98;;;19.10;99.90;;;20.71;100.00;100165.50;5054513;28;20497;-84
2021/09/10 02:02:37;;;;;;;13.57;9.00;;;19.10;99.90;;;20.74;100.00;100156.88;5046179;28;20048;-88
2021/09/10 02:05:03;;;;;;;12.73;10.02;;;19.10;99.90;;;20.74;100.00;100159.72;5038916;28;20052;-87
2021/09/10 02:07:29;;;;;;;12.40;9.18;;;19.10;99.90;;;20.66;100.00;100155.44;5056225;28;20048;-87
2021/09/10 02:09:55;;;;;;;17.02;10.13;;;19.20;99.90;;;20.65;100.00;100153.84;5038737;28;20453;-88
2021/09/10 02:12:22;;;;;;;12.93;9.68;;;19.10;99.90;;;20.63;100.00;100152.69;5039062;28;20488;-88
2021/09/10 02:14:49;;;;;;;12.23;10.10;;;19.10;99.90;;;20.64;100.00;100146.59;5038422;28;20131;-89
2021/09/10 02:17:15;;;;;;;13.10;9.18;;;19.00;99.90;;;20.62;100.00;100146.19;5038697;28;20108;-89
2021/09/10 02:19:41;;;;;;;11.57;9.05;;;19.00;99.90;;;20.51;100.00;100145.66;5038831;28;20035;-87
2021/09/10 02:22:07;;;;;;;11.85;9.32;;;19.00;99.90;;;20.49;100.00;100148.91;5038725;28;20029;-90
2021/09/10 02:24:33;;;;;;;11.32;9.23;;;19.00;99.90;;;20.55;100.00;100154.09;5038687;28;20028;-87
2021/09/10 02:26:58;;;;;;;9.50;8.43;;;19.00;99.90;;;20.54;100.00;100147.59;5039476;28;20049;-87
2021/09/10 02:29:25;;;;;;;11.45;8.93;;;18.90;99.90;;;20.56;100.00;100147.16;5039498;28;20021;-87
2021/09/10 02:31:51;;;;;;;12.23;9.40;;;18.90;99.90;;;20.57;100.00;100149.56;5039161;28;20029;-87
2021/09/10 02:34:17;;;;;;;11.93;8.80;;;18.90;99.90;;;20.65;100.00;100153.03;5039724;28;20044;-88
2021/09/10 02:36:43;;;;;;;15.23;9.02;;;18.90;99.90;;;20.65;100.00;100150.19;5040017;28;20025;-90
2021/09/10 02:39:11;;;;;;;9.45;7.72;;;19.00;99.90;;;20.67;100.00;100150.56;5040685;28;20032;-88
2021/09/10 02:41:39;;;;;;;12.80;8.90;;;19.00;99.90;;;20.71;100.00;100148.47;5038248;28;20063;-90
2021/09/10 02:44:07;;;;;;;11.60;8.90;;;19.00;99.90;;;20.68;100.00;100147.28;5021418;28;20041;-91
2021/09/10 02:46:34;;;;;;;11.27;8.30;;;19.00;99.90;;;20.71;100.00;100146.41;5022029;28;20473;-87
2021/09/10 02:49:01;;;;;;;10.38;8.23;;;19.10;99.90;;;20.70;100.00;100146.84;5018711;28;20037;-88
2021/09/10 02:51:27;;;;;;;11.60;8.35;;;19.00;99.90;;;20.76;100.00;100147.94;5018770;28;20033;-88
2021/09/10 02:53:54;;;;;;;11.50;8.38;;;19.10;99.90;;;20.70;100.00;100149.69;5019017;28;20029;-87
2021/09/10 02:56:20;;;;;;;8.93;7.88;;;19.00;99.90;;;20.66;100.00;100146.94;5037681;28;20029;-89
2021/09/10 02:58:46;;;;;;;10.63;7.05;;;19.00;99.90;;;20.62;100.00;100145.41;5035065;28;20449;-88
2021/09/10 03:01:12;;;;;;;11.05;7.82;;;19.00;99.90;;;20.65;100.00;100150.19;5019801;28;20400;-88
2021/09/10 03:03:38;;;;;;;11.60;7.88;;;19.00;99.90;;;20.71;100.00;100148.47;5035760;28;20056;-87
2021/09/10 03:06:05;;;;;;;10.25;7.57;;;19.00;99.90;;;20.68;100.00;100141.59;5037816;28;20021;-89
2021/09/10 03:08:32;;;;;;;12.27;8.10;;;19.00;99.90;;;20.68;100.00;100138.78;5019296;28;20030;-89
2021/09/10 03:10:57;;;;;;;8.65;7.30;;;19.00;99.90;;;20.74;100.00;100139.84;5018766;28;20060;-89
2021/09/10 03:13:24;;;;;;;8.57;7.07;;;19.10;99.90;;;20.72;100.00;100133.81;5036740;28;20501;-90
2021/09/10 03:15:49;;;;;;;10.32;7.45;;;19.10;99.90;;;20.66;100.00;100135.59;5018537;28;20064;-91
2021/09/10 03:18:15;;;;;;;9.48;7.43;;;19.10;99.90;;;20.68;100.00;100130.25;5019002;28;20293;-89
2021/09/10 03:20:43;;;;;;;11.82;7.55;;;19.10;99.90;;;20.66;100.00;100127.06;5018970;28;20067;-90
2021/09/10 03:23:10;;;;;;;9.13;7.43;;;19.10;99.90;;;20.63;100.00;100129.97;5018645;28;20021;-89
2021/09/10 03:25:36;;;;;;;8.95;7.05;;;19.00;99.90;;;20.56;100.00;100119.59;5016887;28;20032;-88
2021/09/10 03:28:04;;;;;;;10.77;7.78;;;19.00;99.90;;;20.51;100.00;100125.78;5018211;28;20028;-86
2021/09/10 03:30:30;;;;;;;9.65;7.72;;;18.90;99.90;;;20.54;100.00;100124.09;5018486;28;20500;-87
2021/09/10 03:32:56;;;;;;;10.55;7.85;;;18.90;99.90;;;20.46;100.00;100127.09;5018436;28;20038;-89
2021/09/10 03:35:21;;;;;;;8.18;7.38;;;18.90;99.90;;;20.46;100.00;100114.94;5017643;28;20055;-87
2021/09/10 03:37:48;;;;;;;14.15;8.25;;;18.80;99.90;;;20.45;100.00;100111.31;5018338;28;20056;-88
2021/09/10 03:40:15;;;;;;;9.88;8.63;;;18.70;99.90;;;20.46;100.00;100117.78;5018545;28;20044;-87
2021/09/10 03:42:40;;;;;;;11.63;8.02;;;18.80;99.90;;;20.43;100.00;100116.63;5028671;28;20449;-86
2021/09/10 03:45:09;;;;;;;11.77;8.70;;;18.70;99.90;;;20.28;100.00;100114.53;5037658;28;20033;-89
2021/09/10 03:47:35;;;;;;;9.98;8.18;;;18.70;99.90;;;20.27;100.00;100125.06;5039590;28;20119;-88
2021/09/10 03:50:01;;;;;;;10.57;8.73;;;18.60;99.90;;;20.13;100.00;100116.03;5039658;28;20083;-87
2021/09/10 03:52:28;;;;;;;10.70;8.20;;;18.60;99.90;;;20.16;100.00;100112.31;5040093;28;20036;-89
2021/09/10 03:54:54;;;;;;;10.70;9.02;;;18.50;99.90;;;20.08;100.00;100114.50;5039014;28;20032;-87
2021/09/10 03:57:20;;;;;;;11.20;8.25;;;18.60;99.90;;;20.07;100.00;100117.78;5039107;28;20037;-85
2021/09/10 03:59:45;;;;;;;15.00;8.57;;;18.50;99.90;;;20.03;100.00;100117.03;5039069;28;20028;-86
2021/09/10 04:02:11;;;;;;;10.25;8.88;;;18.50;99.90;;;20.07;100.00;100112.13;5041479;28;20037;-86
2021/09/10 04:04:37;;;;;;;12.27;8.70;;;18.50;99.90;;;20.09;100.00;100121.78;5053971;28;20029;-85
2021/09/10 04:07:03;;;;;;;10.43;8.23;;;18.40;99.90;;;20.05;100.00;100126.72;5045574;28;20041;-87
2021/09/10 04:09:29;;;;;;;10.88;8.45;;;18.40;99.90;;;20.07;100.00;100127.06;5039642;28;20548;-89
2021/09/10 04:11:55;;;;;;;12.20;9.57;;;18.40;99.90;;;20.02;100.00;100126.78;5039609;28;20505;-89
2021/09/10 04:14:21;;;;;;;9.55;8.55;;;18.40;99.90;;;19.99;100.00;100132.09;5039785;28;20025;-89
2021/09/10 04:16:47;;;;;;;9.75;7.97;;;18.40;99.90;;;20.04;100.00;100127.13;5039262;28;20029;-88
2021/09/10 04:19:13;;;;;;;13.38;9.38;;;18.30;99.90;;;19.99;100.00;100128.44;5038467;28;20472;-86
2021/09/10 04:21:39;;;;;;;11.95;8.75;;;18.40;99.90;;;20.03;100.00;100137.69;5042385;28;20087;-87
2021/09/10 04:24:06;;;;;;;11.10;8.52;;;18.30;99.90;;;19.95;100.00;100131.34;5057131;28;20085;-89
2021/09/10 04:26:32;;;;;;;11.35;8.65;;;18.30;99.90;;;19.95;100.00;100133.38;5041232;28;20029;-85
2021/09/10 04:28:58;;;;;;;11.35;9.23;;;18.30;99.90;;;19.89;100.00;100130.25;5041204;28;20033;-90
2021/09/10 04:31:23;;;;;;;10.55;8.85;;;18.30;99.90;;;19.83;100.00;100131.19;5043138;28;20036;-85
2021/09/10 04:33:50;;;;;;;11.95;9.23;;;18.30;99.90;;;19.85;100.00;100132.34;5048065;28;20025;-84
2021/09/10 04:36:16;;;;;;;13.32;9.63;;;18.30;99.90;;;19.88;100.00;100137.16;5042702;28;20063;-88
2021/09/10 04:38:43;;;;;;;13.80;9.55;;;18.30;99.90;;;19.89;100.00;100141.59;5041715;28;20492;-83
2021/09/10 04:41:09;;;;;;;15.82;10.07;;;18.20;99.90;;;19.80;100.00;100135.69;5058087;28;20032;-86
2021/09/10 04:43:35;;;;;;;12.20;9.85;;;18.30;99.90;;;19.83;100.00;100136.84;5040096;28;20082;-88
2021/09/10 04:46:01;;;;;;;12.23;10.23;;;18.30;99.90;;;19.77;100.00;100136.56;5039767;28;20025;-88
2021/09/10 04:48:27;;;;;;;14.13;9.90;;;18.20;99.90;;;19.80;100.00;100132.06;5040393;28;20053;-85
2021/09/10 04:50:53;;;;;;;13.38;9.55;;;18.20;99.90;;;19.82;100.00;100132.41;5040374;28;20396;-86
2021/09/10 04:53:19;;;;;;;12.95;10.45;;;18.20;99.90;;;19.80;100.00;100146.22;5039742;28;20037;-88
2021/09/10 04:55:44;;;;;;;12.98;9.15;;;18.20;99.90;;;19.82;100.00;100138.88;5042364;28;20029;-87
2021/09/10 04:58:10;;;;;;;16.55;9.55;;;18.20;99.90;;;19.80;100.00;100132.88;5059346;28;20457;-84
2021/09/10 05:00:36;;;;;;;12.95;9.90;;;18.30;99.90;;;19.81;100.00;100139.34;5039990;28;20485;-91
2021/09/10 05:03:02;;;;;;;11.00;9.48;;;18.20;99.90;;;19.91;100.00;100146.81;5039761;28;20384;-89
2021/09/10 05:05:28;;;;;;;10.25;8.75;;;18.30;99.90;;;19.90;100.00;100148.88;5043350;28;20056;-91
2021/09/10 05:07:54;;;;;;;10.70;8.93;;;18.30;99.90;;;19.92;100.00;100146.38;5040250;28;20139;-89
2021/09/10 05:10:22;;;;;;;10.95;9.43;;;18.30;99.90;;;19.90;100.00;100156.56;5056723;28;20032;-88
2021/09/10 05:12:48;;;;;;;12.93;9.55;;;18.30;99.90;;;19.88;100.00;100150.50;5038478;28;20380;-87
2021/09/10 05:15:15;;;;;;;12.52;10.32;;;18.30;99.90;;;19.88;100.00;100145.66;5041271;28;20021;-88
2021/09/10 05:17:41;;;;;;;13.85;9.70;;;18.30;99.90;;;19.94;100.00;100145.94;5058300;28;20089;-86
2021/09/10 05:20:09;;;;;;;15.55;9.73;;;18.40;99.90;;;19.93;100.00;100150.84;5041604;28;20087;-85
2021/09/10 05:22:37;;;;;;;12.52;9.68;;;18.40;99.90;;;20.04;100.00;100150.63;5057426;28;20016;-86
2021/09/10 05:25:07;;;;;;;13.10;9.77;;;18.40;99.90;;;20.05;100.00;100148.59;5046829;28;20033;-85
2021/09/10 05:27:34;;;;;;;12.60;9.68;;;18.40;99.90;;;20.04;100.00;100149.81;5038060;28;20025;-87
2021/09/10 05:29:59;;;;;;;11.65;8.88;;;18.50;99.90;;;20.14;100.00;100149.59;5056420;28;20033;-86
2021/09/10 05:32:25;;;;;;;11.73;9.25;;;18.50;99.90;;;20.14;100.00;100149.59;5038409;28;20083;-86
2021/09/10 05:34:51;;;;;;;13.13;9.73;;;18.60;99.90;;;20.21;100.00;100152.31;5038048;28;20036;-90
2021/09/10 05:37:17;;;;;;;14.50;9.70;;;18.60;99.90;;;20.29;100.00;100150.94;5038939;28;20162;-88
2021/09/10 05:39:43;;;;;;;13.57;10.38;;;18.60;99.90;;;20.23;100.00;100158.34;5037986;28;20547;-86
2021/09/10 05:42:08;;;;;;;14.00;9.90;;;18.60;99.90;;;20.25;100.00;100166.41;5048248;28;20069;-89
2021/09/10 05:44:34;;;;;;;13.05;9.30;;;18.70;99.90;;;20.28;100.00;100168.41;5017405;28;20062;-88
2021/09/10 05:47:00;;;;;;;12.32;9.88;;;18.70;99.90;;;20.30;100.00;100168.75;5018328;28;20109;-86
2021/09/10 05:49:26;;;;;;;13.93;10.05;;;18.70;99.90;;;20.37;100.00;100186.44;5021216;28;20473;-86
2021/09/10 05:51:52;;;;;;;15.23;10.48;;;18.80;99.90;;;20.44;100.00;100186.31;5022145;28;20025;-86
2021/09/10 05:54:18;;;;;;;14.40;10.10;;;18.90;99.90;;;20.45;100.00;100179.38;5021507;28;20175;-85
2021/09/10 05:56:43;;;;;;;15.20;10.32;;;18.90;99.90;;;20.46;100.00;100181.00;5022127;28;20492;-88
2021/09/10 05:59:09;;;;;;;14.77;9.95;;;18.90;99.90;;;20.61;100.00;100195.69;5022658;28;20052;-87
2021/09/10 06:01:35;;;;;;;13.68;8.52;;;18.90;99.90;;;20.66;100.00;100198.00;5021501;28;20030;-86
2021/09/10 06:04:01;;;;;;;12.68;9.35;;;19.00;99.90;;;20.66;100.00;100197.19;5022001;28;20029;-85
2021/09/10 06:06:27;;;;;;;12.27;8.82;;;19.00;99.90;;;20.72;100.00;100198.28;5039738;28;20017;-86
2021/09/10 06:08:53;;;;;;;11.70;9.07;;;19.00;99.90;;;20.61;100.00;100211.91;5036523;28;20041;-85
2021/09/10 06:11:19;;;;;;;11.88;9.23;;;19.10;99.90;;;20.66;100.00;100202.88;5026824;28;20180;-86
2021/09/10 06:13:44;;;;;;;11.05;9.10;;;19.00;99.90;;;20.71;100.00;100205.22;5021122;28;20132;-86
2021/09/10 06:16:10;;;;;;;12.35;9.05;;;19.10;99.90;;;20.68;100.00;100212.53;5021683;28;20505;-88
2021/09/10 06:18:37;;;;;;;15.07;10.23;;;19.00;99.90;;;20.61;100.00;100209.88;5038505;28;20044;-89
2021/09/10 06:21:03;;;;;;;13.63;8.77;;;19.00;99.90;;;20.63;100.00;100203.75;5037803;28;20025;-90
2021/09/10 06:23:31;;;;;;;16.33;9.13;;;19.00;99.90;;;20.67;100.00;100215.84;5021314;28;20067;-87
2021/09/10 06:25:57;;;;;;;13.18;8.77;;;19.00;99.90;;;20.65;100.00;100209.78;5021754;28;20025;-87
2021/09/10 06:28:22;;;;;;;10.50;9.07;;;18.90;99.90;;;20.63;100.00;100221.59;5021357;28;20025;-89
2021/09/10 06:30:48;;;;;;;14.07;8.80;;;18.90;99.90;;;20.57;100.00;100222.53;5021245;28;20053;-89
2021/09/10 06:33:14;;;;;;;13.98;9.80;;;18.90;99.90;;;20.56;100.00;100221.72;5039341;28;20484;-88
2021/09/10 06:35:40;;;;;;;12.02;9.52;;;18.90;99.90;;;20.69;100.00;100222.66;5020852;28;20401;-88
2021/09/10 06:38:06;;;;;;;14.02;10.10;;;19.00;99.90;;;20.75;100.00;100229.44;5021646;28;20060;-88
2021/09/10 06:40:32;;;;;;;10.63;8.52;;;19.10;99.90;;;20.92;100.00;100242.44;5021366;28;20563;-88
2021/09/10 06:42:59;;;;;;;19.38;8.77;;;19.20;99.90;;;21.17;100.00;100235.44;5033645;28;20053;-90
2021/09/10 06:45:25;;;;;;;13.45;8.80;;;19.30;99.90;;;21.51;99.46;100228.13;5046703;28;20143;-88
2021/09/10 06:47:51;;;;;;;8.60;7.00;;;19.60;99.90;;;21.76;98.04;100227.53;5047731;28;20052;-88
2021/09/10 06:50:17;;;;;;;10.40;7.68;;;19.80;99.90;;;21.84;97.26;100233.81;5047610;28;20033;-88
2021/09/10 06:52:44;;;;;;;10.75;7.22;;;20.00;99.90;;;21.98;95.85;100233.50;5046702;28;20024;-85
2021/09/10 06:55:10;;;;;;;10.70;7.78;;;20.10;99.90;;;21.83;96.40;100229.41;5048821;28;20488;-87
2021/09/10 06:57:38;;;;;;;11.23;7.22;;;20.10;99.90;;;21.68;97.05;100239.50;5049635;28;20579;-87
2021/09/10 07:00:07;;;;;;;14.88;7.43;;;20.00;99.90;;;21.64;97.17;100242.44;5049210;28;20297;-87
2021/09/10 07:02:34;;;;;;;10.80;6.75;;;19.90;99.90;;;21.59;97.09;100242.16;5047807;28;20029;-87
2021/09/10 07:05:00;;;;;;;11.10;7.40;;;19.90;99.90;;;21.41;97.59;100236.94;5047521;28;20028;-88
2021/09/10 07:07:26;;;;;;;10.70;7.10;;;19.80;99.90;;;21.28;98.90;100238.84;5048727;28;20079;-89
2021/09/10 07:09:51;;;;;;;10.95;7.35;;;19.70;99.90;;;21.39;98.86;100240.19;5046389;28;20112;-88
2021/09/10 07:12:21;;;;;;;8.45;6.68;;;19.70;99.90;;;21.61;98.33;100249.00;5047379;28;20029;-88
2021/09/10 07:14:47;;;;;;;10.60;7.13;;;19.90;99.90;;;22.00;96.22;100250.91;5049519;28;20025;-89
2021/09/10 07:17:15;;;;;;;8.95;6.25;;;20.10;99.90;;;22.15;94.51;100245.66;5058845;28;20059;-85
2021/09/10 07:19:41;;;;;;;11.23;6.45;;;20.30;99.90;;;22.09;94.75;100244.59;5058677;28;20029;-87
2021/09/10 07:22:08;;;;;;;7.05;6.05;;;20.40;99.90;;;22.22;94.08;100240.56;5058642;28;20044;-87
2021/09/10 07:24:33;;;;;;;8.88;6.80;;;20.50;99.90;;;22.40;93.19;100249.41;5054939;28;20056;-85
2021/09/10 07:26:59;;;;;;;6.75;5.45;;;20.60;99.90;;;22.53;92.24;100249.47;5054783;28;20021;-90
2021/09/10 07:29:27;;;;;;;9.02;5.55;;;20.80;99.90;;;22.60;91.52;100252.91;5062608;28;20113;-88
2021/09/10 07:31:54;;;;;;;7.72;5.95;;;20.90;99.90;;;22.66;90.61;100252.41;5043149;28;20029;-84
2021/09/10 07:34:21;;;;;;;9.23;5.88;;;20.90;99.90;;;22.75;90.49;100246.84;5046184;28;20440;-86
2021/09/10 07:36:51;;;;;;;11.88;6.25;;;21.00;99.90;;;22.67;90.46;100240.53;5048065;28;20033;-84
2021/09/10 07:39:21;;;;;;;9.50;5.78;;;21.00;99.90;;;22.48;91.09;100253.66;5065748;28;20031;-87
2021/09/10 07:41:48;;;;;;;8.27;5.90;;;21.00;99.90;;;22.68;90.90;100255.56;5047256;28;20113;-85
2021/09/10 07:44:17;;;;;;;9.55;5.50;;;21.00;99.90;;;22.90;90.39;100251.66;5046050;28;20100;-84
2021/09/10 07:46:46;;;;;;;8.23;5.70;;;21.10;99.90;;;23.13;89.92;100258.31;5047488;28;20029;-85
2021/09/10 07:49:12;;;;;;;8.25;4.68;;;21.30;99.90;;;23.29;87.96;100261.88;5065115;28;20033;-86
2021/09/10 07:51:42;;;;;;;7.45;4.60;;;21.50;99.90;;;23.51;86.30;100259.97;5065065;28;20033;-84
2021/09/10 07:54:09;;;;;;;6.32;4.32;;;21.80;99.90;;;24.06;83.76;100258.56;5047114;28;20060;-85
2021/09/10 07:56:35;;;;;;;6.18;4.18;;;22.20;99.90;;;24.36;82.29;100257.13;5046494;28;20044;-84
2021/09/10 07:59:01;;;;;;;5.70;4.05;;;22.40;99.90;;;24.60;80.22;100261.16;5062798;28;20028;-86
2021/09/10 08:01:27;;;;;;;5.63;4.32;;;22.60;99.90;;;24.45;80.18;100257.22;5044683;28;20040;-86
2021/09/10 08:03:56;;;;;;;6.60;4.50;;;22.60;99.90;;;24.38;80.83;100263.19;5061868;28;20025;-84
2021/09/10 08:06:22;;;;;;;6.63;4.00;;;22.60;99.90;;;24.51;81.09;100258.22;5047250;28;20384;-84
2021/09/10 08:08:49;;;;;;;6.60;4.45;;;22.70;99.90;;;25.38;79.34;100263.13;5047478;28;20025;-86
2021/09/10 08:11:15;;;;;;;5.63;4.22;;;23.30;99.90;;;25.85;76.18;100271.47;5051955;28;20037;-83
2021/09/10 08:13:41;;;;;;;6.00;3.70;;;23.80;99.90;;;26.17;73.18;100265.97;5057017;28;20037;-83
2021/09/10 08:16:08;;;;;;;5.93;3.85;;;24.10;99.90;;;25.94;74.75;100271.47;5045418;28;20124;-85
2021/09/10 08:18:34;;;;;;;5.65;3.15;;;24.10;99.90;;;25.56;74.02;100266.06;5063497;28;20047;-86
2021/09/10 08:21:01;;;;;;;7.10;3.70;;;24.10;99.90;;;25.60;73.40;100273.25;5061998;28;20025;-84
2021/09/10 08:23:27;;;;;;;4.32;3.55;;;24.20;99.90;;;25.60;74.23;100276.13;5062620;28;20452;-85
2021/09/10 08:25:53;;;;;;;4.15;3.75;;;24.30;99.90;;;26.01;72.39;100274.03;5046330;28;20491;-91
2021/09/10 08:28:19;;;;;;;5.25;3.38;;;24.40;99.90;;;26.52;71.55;100282.91;5044465;28;20029;-87
2021/09/10 08:30:48;;;;;;;7.50;3.53;;;24.70;99.90;;;26.36;69.76;100281.13;5045873;28;20033;-88
2021/09/10 08:33:15;;;;;;;6.65;3.55;;;24.80;99.90;;;26.83;67.51;100279.91;5044668;28;20047;-88
2021/09/10 08:35:41;;;;;;;8.85;3.72;;;25.00;99.90;;;26.49;69.07;100283.84;5045483;28;20029;-88
2021/09/10 08:38:08;;;;;;;7.07;3.53;;;25.00;99.90;;;26.64;67.84;100288.47;5046586;28;20422;-89
2021/09/10 08:40:34;;;;;;;6.43;3.25;;;25.20;99.90;;;26.90;67.12;100291.03;5062492;28;20024;-90
2021/09/10 08:43:02;;;;;;;7.75;3.50;;;25.30;99.90;;;27.02;67.35;100293.72;5045501;28;20472;-90
2021/09/10 08:45:30;;;;;;;5.82;3.38;;;25.30;99.90;;;27.20;66.60;100287.97;5041333;28;20039;-90
2021/09/10 08:47:57;;;;;;;4.47;2.88;;;25.40;99.90;;;26.60;68.14;100296.41;5043681;28;20025;-89
2021/09/10 08:50:25;;;;;;;6.45;3.35;;;25.20;99.90;;;26.41;69.10;100294.00;5057362;28;20100;-88
2021/09/10 08:52:52;;;;;;;5.45;3.20;;;24.90;99.90;;;26.72;68.70;100292.59;5042047;28;20025;-90
2021/09/10 08:55:19;;;;;;;5.32;3.70;;;24.80;99.90;;;26.65;69.01;100295.00;5043152;28;20075;-91
2021/09/10 08:57:49;;;;;;;5.93;3.20;;;24.70;99.90;;;26.85;69.02;100289.59;5045352;28;20036;-88
2021/09/10 09:00:25;;;;;;;4.60;3.08;;;24.90;99.90;;;27.79;65.69;100293.38;5056846;28;20089;-87
2021/09/10 09:03:08;;;;;;;4.90;2.83;;;25.60;99.90;;;28.08;64.86;100294.38;5053015;28;20056;-90
2021/09/10 09:05:35;;;;;;;5.00;2.85;;;26.00;99.90;;;28.17;62.56;100297.19;5040697;28;20044;-89
2021/09/10 09:08:18;;;;;;;5.43;2.92;;;26.30;99.90;;;28.70;60.65;100293.66;5039185;28;20052;-86
2021/09/10 09:11:02;;;;;;;3.70;2.13;;;26.60;99.90;;;29.54;58.37;100293.16;5038925;28;20051;-89
2021/09/10 09:13:40;;;;;;;5.63;2.58;;;27.20;99.90;;;29.54;55.92;100302.56;5038790;28;20032;-88
2021/09/10 09:16:29;;;;;;;5.15;2.53;;;27.60;99.90;;;30.11;56.23;100305.09;5038064;28;20433;-91
2021/09/10 09:19:02;;;;;;;3.47;1.90;;;27.80;99.90;;;29.89;55.31;100304.75;5038231;28;20400;-88
2021/09/10 09:21:38;;;;;;;3.97;2.30;;;27.70;99.90;;;29.77;55.03;100309.50;5038163;28;20127;-90
2021/09/10 09:24:31;;;;;;;8.30;2.80;;;27.50;99.90;;;28.79;58.50;100299.31;5041185;28;20054;-90
2021/09/10 09:26:57;;;;;;;4.80;2.40;;;27.00;99.90;;;28.57;59.76;100296.75;5061678;28;20048;-90
2021/09/10 09:29:23;;;;;;;3.67;2.33;;;26.50;99.90;;;28.33;60.50;100290.22;5047820;28;20419;-90
2021/09/10 09:32:02;;;;;;;5.45;2.63;;;26.20;99.90;;;27.81;61.01;100299.41;5044167;28;20033;-90
2021/09/10 09:34:50;;;;;;;3.58;2.20;;;25.80;99.90;;;27.55;62.31;100310.53;5044593;28;20037;-90
2021/09/10 09:37:24;;;;;;;4.30;2.72;;;25.50;99.90;;;27.57;61.56;100294.44;5045038;28;20408;-90
2021/09/10 09:40:00;;;;;;;4.00;2.88;;;25.40;99.90;;;27.34;62.22;100297.97;5046946;28;20033;-89
2021/09/10 09:42:34;;;;;;;2.58;2.30;;;25.40;99.90;;;26.73;64.21;100299.13;5051264;28;20025;-91
2021/09/10 09:45:24;;;;;;;4.60;1.95;;;25.20;99.90;;;26.99;63.32;100291.81;5066924;28;20025;-89
2021/09/10 09:47:50;;;;;;;5.13;2.33;;;25.10;99.90;;;27.15;63.02;100293.53;5050983;28;20082;-90
2021/09/10 09:50:21;;;;;;;3.60;2.50;;;25.10;99.90;;;27.28;62.03;100299.09;5043923;28;20028;-87
2021/09/10 09:52:51;;;;;;;5.18;2.50;;;25.30;99.90;;;27.95;60.08;100298.72;5044868;28;20036;-89
2021/09/10 09:55:19;;;;;;;3.70;2.38;;;25.70;99.90;;;28.48;60.56;100293.94;5046107;28;20025;-89
2021/09/10 09:57:46;;;;;;;4.88;2.70;;;26.30;99.90;;;28.86;58.96;100295.28;5064241;28;20025;-88
2021/09/10 10:00:12;;;;;;;4.50;2.50;;;26.70;99.90;;;29.30;57.80;100299.03;5044201;28;20029;-87
2021/09/10 10:02:38;;;;;;;6.82;2.55;;;26.90;99.90;;;28.96;57.99;100299.66;5042653;28;20029;-89
2021/09/10 10:05:08;;;;;;;4.30;2.38;;;26.70;99.90;;;28.84;57.82;100300.69;5042756;28;20137;-85